sensor_id;sensor_type;location;lat;lon;timestamp;P1;durP1;ratioP1;P2;durP2;ratioP2
18125;SDS011;53956;52.442;13.284;2023-08-30T00:02:26;2.95;;;2.40;;
18125;SDS011;53956;52.442;13.284;2023-08-30T00:04:52;4.03;;;2.50;;
18125;SDS011;53956;52.442;13.284;2023-08-30T00:07:24;4.28;;;2.40;;
18125;SDS011;53956;52.442;13.284;2023-08-30T00:09:52;4.68;;;2.30;;
18125;SDS011;53956;52.442;13.284;2023-08-30T00:12:18;3.10;;;2.30;;
18125;SDS011;53956;52.442;13.284;2023-08-30T00:14:45;3.50;;;2.30;;
18125;SDS011;53956;52.442;13.284;2023-08-30T00:17:13;2.42;;;2.22;;
18125;SDS011;53956;52.442;13.284;2023-08-30T00:19:39;6.07;;;2.30;;
18125;SDS011;53956;52.442;13.284;2023-08-30T00:22:06;4.20;;;2.47;;
18125;SDS011;53956;52.442;13.284;2023-08-30T00:24:33;3.88;;;2.40;;
18125;SDS011;53956;52.442;13.284;2023-08-30T00:27:00;4.28;;;2.50;;
18125;SDS011;53956;52.442;13.284;2023-08-30T00:29:26;2.88;;;2.20;;
18125;SDS011;53956;52.442;13.284;2023-08-30T00:31:53;5.53;;;2.38;;
18125;SDS011;53956;52.442;13.284;2023-08-30T00:34:21;3.00;;;2.47;;
18125;SDS011;53956;52.442;13.284;2023-08-30T00:36:48;3.65;;;2.55;;
18125;SDS011;53956;52.442;13.284;2023-08-30T00:39:15;4.55;;;2.40;;
18125;SDS011;53956;52.442;13.284;2023-08-30T00:41:42;4.30;;;2.40;;
18125;SDS011;53956;52.442;13.284;2023-08-30T00:44:09;2.97;;;2.45;;
18125;SDS011;53956;52.442;13.284;2023-08-30T00:46:36;4.63;;;2.40;;
18125;SDS011;53956;52.442;13.284;2023-08-30T00:49:04;3.85;;;2.50;;
18125;SDS011;53956;52.442;13.284;2023-08-30T00:51:32;4.43;;;2.58;;
18125;SDS011;53956;52.442;13.284;2023-08-30T00:53:59;3.72;;;2.70;;
18125;SDS011;53956;52.442;13.284;2023-08-30T00:56:27;3.50;;;2.45;;
18125;SDS011;53956;52.442;13.284;2023-08-30T00:58:54;5.28;;;2.80;;
18125;SDS011;53956;52.442;13.284;2023-08-30T01:01:21;3.70;;;2.53;;
18125;SDS011;53956;52.442;13.284;2023-08-30T01:03:48;4.22;;;2.72;;
18125;SDS011;53956;52.442;13.284;2023-08-30T01:06:14;3.10;;;2.67;;
18125;SDS011;53956;52.442;13.284;2023-08-30T01:08:42;3.97;;;2.67;;
18125;SDS011;53956;52.442;13.284;2023-08-30T01:11:11;2.85;;;2.40;;
18125;SDS011;53956;52.442;13.284;2023-08-30T01:13:43;2.80;;;2.50;;
18125;SDS011;53956;52.442;13.284;2023-08-30T01:16:21;2.88;;;2.55;;
18125;SDS011;53956;52.442;13.284;2023-08-30T01:18:52;4.97;;;2.50;;
18125;SDS011;53956;52.442;13.284;2023-08-30T01:21:22;4.30;;;2.70;;
18125;SDS011;53956;52.442;13.284;2023-08-30T01:23:58;3.83;;;2.78;;
18125;SDS011;53956;52.442;13.284;2023-08-30T01:26:26;3.80;;;2.70;;
18125;SDS011;53956;52.442;13.284;2023-08-30T01:29:03;3.08;;;2.45;;
18125;SDS011;53956;52.442;13.284;2023-08-30T01:31:31;4.90;;;2.50;;
18125;SDS011;53956;52.442;13.284;2023-08-30T01:34:00;4.15;;;2.67;;
18125;SDS011;53956;52.442;13.284;2023-08-30T01:36:29;4.53;;;2.50;;
18125;SDS011;53956;52.442;13.284;2023-08-30T01:38:56;4.55;;;2.75;;
18125;SDS011;53956;52.442;13.284;2023-08-30T01:41:24;4.35;;;2.60;;
18125;SDS011;53956;52.442;13.284;2023-08-30T01:43:51;6.03;;;2.53;;
18125;SDS011;53956;52.442;13.284;2023-08-30T01:46:20;3.63;;;2.30;;
18125;SDS011;53956;52.442;13.284;2023-08-30T01:48:48;4.35;;;2.47;;
18125;SDS011;53956;52.442;13.284;2023-08-30T01:51:16;5.57;;;2.50;;
18125;SDS011;53956;52.442;13.284;2023-08-30T01:53:43;4.13;;;2.70;;
18125;SDS011;53956;52.442;13.284;2023-08-30T01:56:12;4.65;;;2.70;;
18125;SDS011;53956;52.442;13.284;2023-08-30T01:58:39;3.50;;;2.40;;
18125;SDS011;53956;52.442;13.284;2023-08-30T02:01:06;2.58;;;2.25;;
18125;SDS011;53956;52.442;13.284;2023-08-30T02:03:34;4.38;;;2.80;;
18125;SDS011;53956;52.442;13.284;2023-08-30T02:06:02;4.22;;;2.78;;
18125;SDS011;53956;52.442;13.284;2023-08-30T02:08:35;4.20;;;2.75;;
18125;SDS011;53956;52.442;13.284;2023-08-30T02:11:07;3.35;;;2.45;;
18125;SDS011;53956;52.442;13.284;2023-08-30T02:13:38;3.85;;;2.78;;
18125;SDS011;53956;52.442;13.284;2023-08-30T02:16:07;3.38;;;2.70;;
18125;SDS011;53956;52.442;13.284;2023-08-30T02:18:36;4.68;;;2.63;;
18125;SDS011;53956;52.442;13.284;2023-08-30T02:21:05;3.25;;;2.55;;
18125;SDS011;53956;52.442;13.284;2023-08-30T02:23:31;3.10;;;2.80;;
18125;SDS011;53956;52.442;13.284;2023-08-30T02:25:58;3.42;;;2.55;;
18125;SDS011;53956;52.442;13.284;2023-08-30T02:28:25;2.67;;;2.42;;
18125;SDS011;53956;52.442;13.284;2023-08-30T02:30:52;6.13;;;3.10;;
18125;SDS011;53956;52.442;13.284;2023-08-30T02:33:19;3.40;;;2.65;;
18125;SDS011;53956;52.442;13.284;2023-08-30T02:35:47;4.30;;;2.60;;
18125;SDS011;53956;52.442;13.284;2023-08-30T02:38:14;3.35;;;2.60;;
18125;SDS011;53956;52.442;13.284;2023-08-30T02:40:41;3.22;;;2.53;;
18125;SDS011;53956;52.442;13.284;2023-08-30T02:43:08;3.47;;;2.78;;
18125;SDS011;53956;52.442;13.284;2023-08-30T02:45:35;3.33;;;2.70;;
18125;SDS011;53956;52.442;13.284;2023-08-30T02:48:02;4.32;;;2.30;;
18125;SDS011;53956;52.442;13.284;2023-08-30T02:50:29;5.18;;;2.80;;
18125;SDS011;53956;52.442;13.284;2023-08-30T02:52:57;4.80;;;2.90;;
18125;SDS011;53956;52.442;13.284;2023-08-30T02:55:24;5.78;;;2.90;;
18125;SDS011;53956;52.442;13.284;2023-08-30T02:57:50;4.72;;;2.50;;
18125;SDS011;53956;52.442;13.284;2023-08-30T03:00:17;3.28;;;2.97;;
18125;SDS011;53956;52.442;13.284;2023-08-30T03:02:47;2.78;;;2.50;;
18125;SDS011;53956;52.442;13.284;2023-08-30T03:05:14;3.05;;;2.70;;
18125;SDS011;53956;52.442;13.284;2023-08-30T03:07:41;3.47;;;3.13;;
18125;SDS011;53956;52.442;13.284;2023-08-30T03:10:09;4.53;;;2.70;;
18125;SDS011;53956;52.442;13.284;2023-08-30T03:12:37;3.78;;;2.40;;
18125;SDS011;53956;52.442;13.284;2023-08-30T03:15:04;3.00;;;2.70;;
18125;SDS011;53956;52.442;13.284;2023-08-30T03:17:32;4.13;;;2.78;;
18125;SDS011;53956;52.442;13.284;2023-08-30T03:19:59;5.72;;;2.80;;
18125;SDS011;53956;52.442;13.284;2023-08-30T03:22:28;3.38;;;2.80;;
18125;SDS011;53956;52.442;13.284;2023-08-30T03:24:55;3.15;;;2.72;;
18125;SDS011;53956;52.442;13.284;2023-08-30T03:27:23;3.47;;;3.17;;
18125;SDS011;53956;52.442;13.284;2023-08-30T03:29:49;3.50;;;3.05;;
18125;SDS011;53956;52.442;13.284;2023-08-30T03:32:17;4.72;;;3.03;;
18125;SDS011;53956;52.442;13.284;2023-08-30T03:34:47;3.35;;;2.88;;
18125;SDS011;53956;52.442;13.284;2023-08-30T03:37:14;3.33;;;3.00;;
18125;SDS011;53956;52.442;13.284;2023-08-30T03:39:41;5.25;;;3.10;;
18125;SDS011;53956;52.442;13.284;2023-08-30T03:42:08;6.97;;;3.30;;
18125;SDS011;53956;52.442;13.284;2023-08-30T03:44:37;3.42;;;3.00;;
18125;SDS011;53956;52.442;13.284;2023-08-30T03:47:05;3.75;;;3.35;;
18125;SDS011;53956;52.442;13.284;2023-08-30T03:49:32;5.18;;;2.92;;
18125;SDS011;53956;52.442;13.284;2023-08-30T03:51:59;3.33;;;3.03;;
18125;SDS011;53956;52.442;13.284;2023-08-30T03:54:25;4.32;;;3.20;;
18125;SDS011;53956;52.442;13.284;2023-08-30T03:56:52;3.78;;;3.22;;
18125;SDS011;53956;52.442;13.284;2023-08-30T03:59:19;4.28;;;3.40;;
18125;SDS011;53956;52.442;13.284;2023-08-30T04:01:49;6.47;;;3.53;;
18125;SDS011;53956;52.442;13.284;2023-08-30T04:04:16;5.17;;;3.47;;
18125;SDS011;53956;52.442;13.284;2023-08-30T04:06:43;3.72;;;3.30;;
18125;SDS011;53956;52.442;13.284;2023-08-30T04:09:09;4.03;;;3.28;;
18125;SDS011;53956;52.442;13.284;2023-08-30T04:11:36;4.28;;;3.53;;
18125;SDS011;53956;52.442;13.284;2023-08-30T04:14:03;4.20;;;3.40;;
18125;SDS011;53956;52.442;13.284;2023-08-30T04:16:30;3.60;;;2.97;;
18125;SDS011;53956;52.442;13.284;2023-08-30T04:18:58;7.70;;;3.53;;
18125;SDS011;53956;52.442;13.284;2023-08-30T04:21:24;4.43;;;3.50;;
18125;SDS011;53956;52.442;13.284;2023-08-30T04:23:51;4.82;;;3.10;;
18125;SDS011;53956;52.442;13.284;2023-08-30T04:26:18;5.50;;;3.28;;
18125;SDS011;53956;52.442;13.284;2023-08-30T04:28:44;6.10;;;3.20;;
18125;SDS011;53956;52.442;13.284;2023-08-30T04:31:11;6.78;;;3.40;;
18125;SDS011;53956;52.442;13.284;2023-08-30T04:33:37;4.05;;;3.40;;
18125;SDS011;53956;52.442;13.284;2023-08-30T04:36:06;3.88;;;3.30;;
18125;SDS011;53956;52.442;13.284;2023-08-30T04:38:33;5.25;;;3.40;;
18125;SDS011;53956;52.442;13.284;2023-08-30T04:41:00;4.10;;;3.38;;
18125;SDS011;53956;52.442;13.284;2023-08-30T04:43:30;5.57;;;3.53;;
18125;SDS011;53956;52.442;13.284;2023-08-30T04:45:57;4.00;;;3.53;;
18125;SDS011;53956;52.442;13.284;2023-08-30T04:48:25;5.00;;;3.50;;
18125;SDS011;53956;52.442;13.284;2023-08-30T04:50:57;4.63;;;3.75;;
18125;SDS011;53956;52.442;13.284;2023-08-30T04:53:26;6.40;;;3.67;;
18125;SDS011;53956;52.442;13.284;2023-08-30T04:55:53;5.20;;;3.47;;
18125;SDS011;53956;52.442;13.284;2023-08-30T04:58:19;3.72;;;3.42;;
18125;SDS011;53956;52.442;13.284;2023-08-30T05:00:46;5.47;;;3.70;;
18125;SDS011;53956;52.442;13.284;2023-08-30T05:03:13;5.32;;;3.70;;
18125;SDS011;53956;52.442;13.284;2023-08-30T05:05:39;3.80;;;3.38;;
18125;SDS011;53956;52.442;13.284;2023-08-30T05:08:07;6.28;;;3.70;;
18125;SDS011;53956;52.442;13.284;2023-08-30T05:10:34;4.35;;;3.60;;
18125;SDS011;53956;52.442;13.284;2023-08-30T05:13:02;4.55;;;3.88;;
18125;SDS011;53956;52.442;13.284;2023-08-30T05:15:30;3.95;;;3.55;;
18125;SDS011;53956;52.442;13.284;2023-08-30T05:17:57;5.40;;;3.50;;
18125;SDS011;53956;52.442;13.284;2023-08-30T05:20:23;4.68;;;3.95;;
18125;SDS011;53956;52.442;13.284;2023-08-30T05:22:50;4.45;;;3.70;;
18125;SDS011;53956;52.442;13.284;2023-08-30T05:25:18;5.68;;;3.60;;
18125;SDS011;53956;52.442;13.284;2023-08-30T05:27:45;5.45;;;3.72;;
18125;SDS011;53956;52.442;13.284;2023-08-30T05:30:13;6.75;;;3.67;;
18125;SDS011;53956;52.442;13.284;2023-08-30T05:32:40;4.28;;;3.70;;
18125;SDS011;53956;52.442;13.284;2023-08-30T05:35:17;5.82;;;3.80;;
18125;SDS011;53956;52.442;13.284;2023-08-30T05:38:02;4.70;;;4.13;;
18125;SDS011;53956;52.442;13.284;2023-08-30T05:40:45;4.72;;;3.92;;
18125;SDS011;53956;52.442;13.284;2023-08-30T05:43:13;4.88;;;3.97;;
18125;SDS011;53956;52.442;13.284;2023-08-30T05:45:41;7.63;;;4.10;;
18125;SDS011;53956;52.442;13.284;2023-08-30T05:48:08;5.45;;;4.20;;
18125;SDS011;53956;52.442;13.284;2023-08-30T05:50:35;5.63;;;4.20;;
18125;SDS011;53956;52.442;13.284;2023-08-30T05:53:02;8.30;;;4.15;;
18125;SDS011;53956;52.442;13.284;2023-08-30T05:55:29;5.60;;;4.32;;
18125;SDS011;53956;52.442;13.284;2023-08-30T05:57:56;5.95;;;4.57;;
18125;SDS011;53956;52.442;13.284;2023-08-30T06:00:24;5.63;;;4.43;;
18125;SDS011;53956;52.442;13.284;2023-08-30T06:02:51;5.25;;;4.07;;
18125;SDS011;53956;52.442;13.284;2023-08-30T06:05:18;4.95;;;4.40;;
18125;SDS011;53956;52.442;13.284;2023-08-30T06:07:44;6.22;;;4.88;;
18125;SDS011;53956;52.442;13.284;2023-08-30T06:10:12;9.50;;;4.85;;
18125;SDS011;53956;52.442;13.284;2023-08-30T06:12:38;5.28;;;4.40;;
18125;SDS011;53956;52.442;13.284;2023-08-30T06:15:05;6.47;;;4.07;;
18125;SDS011;53956;52.442;13.284;2023-08-30T06:17:34;6.13;;;4.25;;
18125;SDS011;53956;52.442;13.284;2023-08-30T06:20:01;6.28;;;4.45;;
18125;SDS011;53956;52.442;13.284;2023-08-30T06:22:27;6.60;;;4.60;;
18125;SDS011;53956;52.442;13.284;2023-08-30T06:24:54;9.68;;;5.10;;
18125;SDS011;53956;52.442;13.284;2023-08-30T06:27:20;6.57;;;4.47;;
18125;SDS011;53956;52.442;13.284;2023-08-30T06:29:47;5.38;;;4.65;;
18125;SDS011;53956;52.442;13.284;2023-08-30T06:32:14;6.57;;;4.90;;
18125;SDS011;53956;52.442;13.284;2023-08-30T06:34:42;6.25;;;4.55;;
18125;SDS011;53956;52.442;13.284;2023-08-30T06:37:08;6.32;;;4.60;;
18125;SDS011;53956;52.442;13.284;2023-08-30T06:39:35;5.20;;;4.50;;
18125;SDS011;53956;52.442;13.284;2023-08-30T06:42:02;5.90;;;5.18;;
18125;SDS011;53956;52.442;13.284;2023-08-30T06:44:29;6.63;;;5.00;;
18125;SDS011;53956;52.442;13.284;2023-08-30T06:46:56;6.72;;;4.75;;
18125;SDS011;53956;52.442;13.284;2023-08-30T06:49:22;5.32;;;4.68;;
18125;SDS011;53956;52.442;13.284;2023-08-30T06:51:50;6.63;;;4.38;;
18125;SDS011;53956;52.442;13.284;2023-08-30T06:54:17;5.15;;;4.47;;
18125;SDS011;53956;52.442;13.284;2023-08-30T06:56:47;5.03;;;4.53;;
18125;SDS011;53956;52.442;13.284;2023-08-30T06:59:23;8.48;;;4.47;;
18125;SDS011;53956;52.442;13.284;2023-08-30T07:01:50;6.97;;;4.95;;
18125;SDS011;53956;52.442;13.284;2023-08-30T07:04:16;7.20;;;4.28;;
18125;SDS011;53956;52.442;13.284;2023-08-30T07:06:43;4.40;;;4.00;;
18125;SDS011;53956;52.442;13.284;2023-08-30T07:09:11;6.15;;;3.90;;
18125;SDS011;53956;52.442;13.284;2023-08-30T07:11:38;4.90;;;3.67;;
18125;SDS011;53956;52.442;13.284;2023-08-30T07:14:04;5.32;;;3.47;;
18125;SDS011;53956;52.442;13.284;2023-08-30T07:16:31;6.55;;;3.42;;
18125;SDS011;53956;52.442;13.284;2023-08-30T07:18:58;4.07;;;3.30;;
18125;SDS011;53956;52.442;13.284;2023-08-30T07:21:25;3.80;;;3.33;;
18125;SDS011;53956;52.442;13.284;2023-08-30T07:23:51;6.75;;;3.05;;
18125;SDS011;53956;52.442;13.284;2023-08-30T07:26:19;3.75;;;3.17;;
18125;SDS011;53956;52.442;13.284;2023-08-30T07:28:46;5.18;;;2.80;;
18125;SDS011;53956;52.442;13.284;2023-08-30T07:31:12;4.72;;;2.90;;
18125;SDS011;53956;52.442;13.284;2023-08-30T07:33:41;7.07;;;2.72;;
18125;SDS011;53956;52.442;13.284;2023-08-30T07:36:07;3.50;;;2.50;;
18125;SDS011;53956;52.442;13.284;2023-08-30T07:38:34;3.10;;;2.50;;
18125;SDS011;53956;52.442;13.284;2023-08-30T07:41:01;3.70;;;2.30;;
18125;SDS011;53956;52.442;13.284;2023-08-30T07:43:29;3.88;;;2.67;;
18125;SDS011;53956;52.442;13.284;2023-08-30T07:45:55;6.35;;;2.83;;
18125;SDS011;53956;52.442;13.284;2023-08-30T07:48:24;5.50;;;2.80;;
18125;SDS011;53956;52.442;13.284;2023-08-30T07:50:50;3.38;;;2.90;;
18125;SDS011;53956;52.442;13.284;2023-08-30T07:53:17;4.18;;;2.70;;
18125;SDS011;53956;52.442;13.284;2023-08-30T07:55:47;2.95;;;2.65;;
18125;SDS011;53956;52.442;13.284;2023-08-30T07:58:15;3.60;;;2.60;;
18125;SDS011;53956;52.442;13.284;2023-08-30T08:00:42;3.30;;;2.40;;
18125;SDS011;53956;52.442;13.284;2023-08-30T08:03:09;4.43;;;2.78;;
18125;SDS011;53956;52.442;13.284;2023-08-30T08:05:36;5.50;;;2.63;;
18125;SDS011;53956;52.442;13.284;2023-08-30T08:08:02;2.83;;;2.50;;
18125;SDS011;53956;52.442;13.284;2023-08-30T08:10:31;3.00;;;2.42;;
18125;SDS011;53956;52.442;13.284;2023-08-30T08:12:58;2.97;;;2.33;;
18125;SDS011;53956;52.442;13.284;2023-08-30T08:15:24;4.75;;;2.60;;
18125;SDS011;53956;52.442;13.284;2023-08-30T08:17:52;4.70;;;2.30;;
18125;SDS011;53956;52.442;13.284;2023-08-30T08:20:19;3.75;;;2.17;;
18125;SDS011;53956;52.442;13.284;2023-08-30T08:22:46;2.60;;;2.33;;
18125;SDS011;53956;52.442;13.284;2023-08-30T08:25:13;4.43;;;2.20;;
18125;SDS011;53956;52.442;13.284;2023-08-30T08:27:39;3.15;;;2.42;;
18125;SDS011;53956;52.442;13.284;2023-08-30T08:30:06;3.47;;;2.28;;
18125;SDS011;53956;52.442;13.284;2023-08-30T08:32:34;4.72;;;2.33;;
18125;SDS011;53956;52.442;13.284;2023-08-30T08:35:02;3.70;;;2.10;;
18125;SDS011;53956;52.442;13.284;2023-08-30T08:37:29;3.58;;;2.30;;
18125;SDS011;53956;52.442;13.284;2023-08-30T08:39:57;3.42;;;1.92;;
18125;SDS011;53956;52.442;13.284;2023-08-30T08:42:23;4.35;;;2.35;;
18125;SDS011;53956;52.442;13.284;2023-08-30T08:44:50;3.00;;;2.03;;
18125;SDS011;53956;52.442;13.284;2023-08-30T08:47:18;4.75;;;2.60;;
18125;SDS011;53956;52.442;13.284;2023-08-30T08:49:46;2.50;;;2.00;;
18125;SDS011;53956;52.442;13.284;2023-08-30T08:52:15;4.20;;;2.25;;
18125;SDS011;53956;52.442;13.284;2023-08-30T08:54:42;2.63;;;2.00;;
18125;SDS011;53956;52.442;13.284;2023-08-30T08:57:09;3.28;;;2.47;;
18125;SDS011;53956;52.442;13.284;2023-08-30T08:59:36;5.43;;;2.40;;
18125;SDS011;53956;52.442;13.284;2023-08-30T09:02:03;3.08;;;2.00;;
18125;SDS011;53956;52.442;13.284;2023-08-30T09:04:30;3.85;;;2.17;;
18125;SDS011;53956;52.442;13.284;2023-08-30T09:06:57;3.67;;;2.20;;
18125;SDS011;53956;52.442;13.284;2023-08-30T09:09:26;5.50;;;2.50;;
18125;SDS011;53956;52.442;13.284;2023-08-30T09:11:53;4.35;;;3.10;;
18125;SDS011;53956;52.442;13.284;2023-08-30T09:14:19;4.45;;;2.30;;
18125;SDS011;53956;52.442;13.284;2023-08-30T09:16:53;4.82;;;2.33;;
18125;SDS011;53956;52.442;13.284;2023-08-30T09:19:20;6.07;;;2.13;;
18125;SDS011;53956;52.442;13.284;2023-08-30T09:21:50;2.70;;;2.15;;
18125;SDS011;53956;52.442;13.284;2023-08-30T09:24:17;5.13;;;2.47;;
18125;SDS011;53956;52.442;13.284;2023-08-30T09:26:47;4.85;;;2.30;;
18125;SDS011;53956;52.442;13.284;2023-08-30T09:29:16;4.53;;;2.55;;
18125;SDS011;53956;52.442;13.284;2023-08-30T09:31:43;3.97;;;2.10;;
18125;SDS011;53956;52.442;13.284;2023-08-30T09:34:10;2.47;;;1.92;;
18125;SDS011;53956;52.442;13.284;2023-08-30T09:36:38;4.63;;;3.00;;
18125;SDS011;53956;52.442;13.284;2023-08-30T09:39:05;6.32;;;3.03;;
18125;SDS011;53956;52.442;13.284;2023-08-30T09:41:33;3.67;;;2.88;;
18125;SDS011;53956;52.442;13.284;2023-08-30T09:44:07;2.35;;;2.15;;
18125;SDS011;53956;52.442;13.284;2023-08-30T09:46:39;10.32;;;2.72;;
18125;SDS011;53956;52.442;13.284;2023-08-30T09:49:07;3.20;;;2.10;;
18125;SDS011;53956;52.442;13.284;2023-08-30T09:51:35;3.47;;;2.50;;
18125;SDS011;53956;52.442;13.284;2023-08-30T09:54:04;2.97;;;2.10;;
18125;SDS011;53956;52.442;13.284;2023-08-30T09:56:31;4.10;;;2.30;;
18125;SDS011;53956;52.442;13.284;2023-08-30T09:59:01;3.15;;;2.08;;
18125;SDS011;53956;52.442;13.284;2023-08-30T10:01:30;3.05;;;2.00;;
18125;SDS011;53956;52.442;13.284;2023-08-30T10:03:57;2.83;;;1.90;;
18125;SDS011;53956;52.442;13.284;2023-08-30T10:06:24;3.33;;;1.90;;
18125;SDS011;53956;52.442;13.284;2023-08-30T10:08:52;2.90;;;1.90;;
18125;SDS011;53956;52.442;13.284;2023-08-30T10:11:20;3.70;;;2.50;;
18125;SDS011;53956;52.442;13.284;2023-08-30T10:13:47;3.00;;;1.80;;
18125;SDS011;53956;52.442;13.284;2023-08-30T10:16:18;3.50;;;1.63;;
18125;SDS011;53956;52.442;13.284;2023-08-30T10:18:50;2.35;;;2.00;;
18125;SDS011;53956;52.442;13.284;2023-08-30T10:21:20;4.97;;;2.00;;
18125;SDS011;53956;52.442;13.284;2023-08-30T10:23:47;2.78;;;1.73;;
18125;SDS011;53956;52.442;13.284;2023-08-30T10:26:20;2.70;;;2.15;;
18125;SDS011;53956;52.442;13.284;2023-08-30T10:28:48;3.70;;;1.75;;
18125;SDS011;53956;52.442;13.284;2023-08-30T10:31:15;2.67;;;1.50;;
18125;SDS011;53956;52.442;13.284;2023-08-30T10:33:46;4.78;;;2.00;;
18125;SDS011;53956;52.442;13.284;2023-08-30T10:36:20;2.20;;;1.45;;
18125;SDS011;53956;52.442;13.284;2023-08-30T10:38:48;3.75;;;1.70;;
18125;SDS011;53956;52.442;13.284;2023-08-30T10:41:19;3.13;;;1.60;;
18125;SDS011;53956;52.442;13.284;2023-08-30T10:43:49;2.72;;;1.40;;
18125;SDS011;53956;52.442;13.284;2023-08-30T10:46:17;2.50;;;1.45;;
18125;SDS011;53956;52.442;13.284;2023-08-30T10:48:56;2.88;;;1.80;;
18125;SDS011;53956;52.442;13.284;2023-08-30T10:51:34;2.70;;;1.67;;
18125;SDS011;53956;52.442;13.284;2023-08-30T10:54:09;2.33;;;1.30;;
18125;SDS011;53956;52.442;13.284;2023-08-30T10:56:45;5.05;;;1.70;;
18125;SDS011;53956;52.442;13.284;2023-08-30T10:59:15;3.13;;;1.40;;
18125;SDS011;53956;52.442;13.284;2023-08-30T11:01:43;1.95;;;1.40;;
18125;SDS011;53956;52.442;13.284;2023-08-30T11:04:12;1.80;;;1.27;;
18125;SDS011;53956;52.442;13.284;2023-08-30T11:06:41;3.20;;;1.20;;
18125;SDS011;53956;52.442;13.284;2023-08-30T11:09:08;1.38;;;1.27;;
18125;SDS011;53956;52.442;13.284;2023-08-30T11:11:36;2.33;;;1.40;;
18125;SDS011;53956;52.442;13.284;2023-08-30T11:14:04;2.13;;;1.30;;
18125;SDS011;53956;52.442;13.284;2023-08-30T11:16:31;2.38;;;1.42;;
18125;SDS011;53956;52.442;13.284;2023-08-30T11:18:59;2.22;;;1.40;;
18125;SDS011;53956;52.442;13.284;2023-08-30T11:21:28;1.75;;;1.50;;
18125;SDS011;53956;52.442;13.284;2023-08-30T11:23:55;2.47;;;1.35;;
18125;SDS011;53956;52.442;13.284;2023-08-30T11:26:22;2.33;;;1.40;;
18125;SDS011;53956;52.442;13.284;2023-08-30T11:28:49;2.97;;;1.50;;
18125;SDS011;53956;52.442;13.284;2023-08-30T11:31:18;2.92;;;1.70;;
18125;SDS011;53956;52.442;13.284;2023-08-30T11:33:49;3.15;;;1.58;;
18125;SDS011;53956;52.442;13.284;2023-08-30T11:36:17;1.80;;;1.48;;
18125;SDS011;53956;52.442;13.284;2023-08-30T11:38:46;4.53;;;1.80;;
18125;SDS011;53956;52.442;13.284;2023-08-30T11:41:12;3.35;;;1.60;;
18125;SDS011;53956;52.442;13.284;2023-08-30T11:43:39;3.42;;;1.70;;
18125;SDS011;53956;52.442;13.284;2023-08-30T11:46:07;2.42;;;1.60;;
18125;SDS011;53956;52.442;13.284;2023-08-30T11:48:34;2.38;;;1.48;;
18125;SDS011;53956;52.442;13.284;2023-08-30T11:51:01;2.78;;;1.58;;
18125;SDS011;53956;52.442;13.284;2023-08-30T11:53:28;2.58;;;1.42;;
18125;SDS011;53956;52.442;13.284;2023-08-30T11:55:56;3.20;;;1.70;;
18125;SDS011;53956;52.442;13.284;2023-08-30T11:58:23;4.10;;;1.80;;
18125;SDS011;53956;52.442;13.284;2023-08-30T12:00:49;2.15;;;1.77;;
18125;SDS011;53956;52.442;13.284;2023-08-30T12:03:18;3.70;;;1.70;;
18125;SDS011;53956;52.442;13.284;2023-08-30T12:05:45;2.22;;;1.60;;
18125;SDS011;53956;52.442;13.284;2023-08-30T12:08:17;2.78;;;1.95;;
18125;SDS011;53956;52.442;13.284;2023-08-30T12:10:44;4.15;;;2.00;;
18125;SDS011;53956;52.442;13.284;2023-08-30T12:13:20;4.82;;;2.00;;
18125;SDS011;53956;52.442;13.284;2023-08-30T12:15:47;4.50;;;1.85;;
18125;SDS011;53956;52.442;13.284;2023-08-30T12:18:14;2.13;;;1.80;;
18125;SDS011;53956;52.442;13.284;2023-08-30T12:20:50;2.75;;;1.90;;
18125;SDS011;53956;52.442;13.284;2023-08-30T12:23:21;2.85;;;1.83;;
18125;SDS011;53956;52.442;13.284;2023-08-30T12:26:01;2.75;;;1.88;;
18125;SDS011;53956;52.442;13.284;2023-08-30T12:28:31;1.90;;;1.60;;
18125;SDS011;53956;52.442;13.284;2023-08-30T12:30:59;2.53;;;1.50;;
18125;SDS011;53956;52.442;13.284;2023-08-30T12:33:26;3.30;;;1.77;;
18125;SDS011;53956;52.442;13.284;2023-08-30T12:35:53;2.70;;;1.50;;
18125;SDS011;53956;52.442;13.284;2023-08-30T12:38:20;5.70;;;1.80;;
18125;SDS011;53956;52.442;13.284;2023-08-30T12:40:48;3.25;;;1.80;;
18125;SDS011;53956;52.442;13.284;2023-08-30T12:43:15;4.78;;;1.83;;
18125;SDS011;53956;52.442;13.284;2023-08-30T12:45:44;2.15;;;1.80;;
18125;SDS011;53956;52.442;13.284;2023-08-30T12:48:11;4.10;;;1.73;;
18125;SDS011;53956;52.442;13.284;2023-08-30T12:50:39;5.75;;;1.80;;
18125;SDS011;53956;52.442;13.284;2023-08-30T12:53:06;5.15;;;1.67;;
18125;SDS011;53956;52.442;13.284;2023-08-30T12:55:33;5.47;;;1.90;;
18125;SDS011;53956;52.442;13.284;2023-08-30T12:58:01;4.13;;;1.60;;
18125;SDS011;53956;52.442;13.284;2023-08-30T13:00:28;3.33;;;1.80;;
18125;SDS011;53956;52.442;13.284;2023-08-30T13:13:48;2.42;;;1.60;;
18125;SDS011;53956;52.442;13.284;2023-08-30T13:18:57;2.42;;;1.70;;
18125;SDS011;53956;52.442;13.284;2023-08-30T13:21:23;2.53;;;1.77;;
18125;SDS011;53956;52.442;13.284;2023-08-30T13:23:51;2.42;;;1.70;;
18125;SDS011;53956;52.442;13.284;2023-08-30T13:26:17;3.53;;;2.00;;
18125;SDS011;53956;52.442;13.284;2023-08-30T13:28:44;1.90;;;1.80;;
18125;SDS011;53956;52.442;13.284;2023-08-30T13:31:12;4.10;;;1.98;;
18125;SDS011;53956;52.442;13.284;2023-08-30T13:33:38;4.18;;;1.80;;
18125;SDS011;53956;52.442;13.284;2023-08-30T13:36:05;3.35;;;2.05;;
18125;SDS011;53956;52.442;13.284;2023-08-30T13:38:32;2.50;;;1.98;;
18125;SDS011;53956;52.442;13.284;2023-08-30T13:40:58;2.38;;;1.73;;
18125;SDS011;53956;52.442;13.284;2023-08-30T13:43:25;1.85;;;1.60;;
18125;SDS011;53956;52.442;13.284;2023-08-30T13:48:27;2.28;;;1.70;;
18125;SDS011;53956;52.442;13.284;2023-08-30T13:50:54;3.28;;;1.90;;
18125;SDS011;53956;52.442;13.284;2023-08-30T13:53:21;5.82;;;2.20;;
18125;SDS011;53956;52.442;13.284;2023-08-30T13:55:47;3.53;;;1.88;;
18125;SDS011;53956;52.442;13.284;2023-08-30T13:58:14;3.20;;;1.70;;
18125;SDS011;53956;52.442;13.284;2023-08-30T14:16:54;3.45;;;2.00;;
18125;SDS011;53956;52.442;13.284;2023-08-30T14:19:21;3.10;;;1.92;;
18125;SDS011;53956;52.442;13.284;2023-08-30T14:21:47;2.03;;;1.85;;
18125;SDS011;53956;52.442;13.284;2023-08-30T14:24:14;2.70;;;1.60;;
18125;SDS011;53956;52.442;13.284;2023-08-30T14:26:41;3.60;;;1.95;;
18125;SDS011;53956;52.442;13.284;2023-08-30T14:32:06;5.40;;;1.80;;
18125;SDS011;53956;52.442;13.284;2023-08-30T14:34:38;4.07;;;1.40;;
18125;SDS011;53956;52.442;13.284;2023-08-30T14:37:04;3.17;;;1.60;;
18125;SDS011;53956;52.442;13.284;2023-08-30T14:39:40;4.82;;;1.77;;
18125;SDS011;53956;52.442;13.284;2023-08-30T14:42:07;3.80;;;1.73;;
18125;SDS011;53956;52.442;13.284;2023-08-30T14:44:41;2.90;;;1.70;;
18125;SDS011;53956;52.442;13.284;2023-08-30T14:47:09;2.83;;;1.73;;
18125;SDS011;53956;52.442;13.284;2023-08-30T14:49:35;2.90;;;1.80;;
18125;SDS011;53956;52.442;13.284;2023-08-30T14:52:02;2.03;;;1.50;;
18125;SDS011;53956;52.442;13.284;2023-08-30T14:54:29;2.92;;;1.60;;
18125;SDS011;53956;52.442;13.284;2023-08-30T14:56:55;2.53;;;1.52;;
18125;SDS011;53956;52.442;13.284;2023-08-30T14:59:22;3.45;;;1.42;;
18125;SDS011;53956;52.442;13.284;2023-08-30T15:01:48;3.35;;;1.60;;
18125;SDS011;53956;52.442;13.284;2023-08-30T15:04:16;2.63;;;1.63;;
18125;SDS011;53956;52.442;13.284;2023-08-30T15:06:43;2.67;;;1.70;;
18125;SDS011;53956;52.442;13.284;2023-08-30T15:09:09;2.38;;;1.60;;
18125;SDS011;53956;52.442;13.284;2023-08-30T15:11:36;2.45;;;1.77;;
18125;SDS011;53956;52.442;13.284;2023-08-30T15:16:45;2.75;;;1.60;;